Greenvale, New York
Current Conditions -  °F | °C
As of 1:51 AM on Thursday 27 Nov 2014 (Local Time) from KLGA Reporting Station
Overcast Overcast  
Wind Chill: 28°   Ceiling: 7500
Heat Index: 37°   Visibility: 10mi
Dew Point: 30°   Wind: 16mph
Humidity: 76%   Direction: 340°NNW
Pressure: 29.88"   Gusts: NA
Location:  40.81°N, 73.63°W
Report Text: KLGA 270651Z 34014KT 10SM OVC075 03/M01 A2988 RMK AO2 PK WND 34026/0552 SLP118 T00281011
Loading
Personal Weather Stations






























Interactive Weather Map New forecast layout! Learn more

10-Day Weather Forecast

Advertisements
Track Severe Weather on mobile